Time;durP1;ratioP1;P1;durP2;ratioP2;P2;SDS_P1;SDS_P2;PMS_P1;PMS_P2;Temp;Humidity;BMP_temperature;BMP_pressure;BME280_temperature;BME280_humidity;BME280_pressure;Samples;Min_cycle;Max_cycle;Signal;HPM_P1;HPM_P2
2023/01/19 00:01:24;;;;;;;7.97;3.25;;;10.60;88.00;;;;;;6280081;22;20011;-77
2023/01/19 00:03:49;;;;;;;9.23;2.95;;;10.60;87.90;;;;;;6307263;22;20333;-77
2023/01/19 00:06:16;;;;;;;8.93;3.30;;;10.60;88.20;;;;;;6307277;22;19999;-76
2023/01/19 00:08:44;;;;;;;6.82;3.03;;;10.60;88.10;;;;;;6306945;22;20314;-76
2023/01/19 00:11:11;;;;;;;7.15;2.65;;;10.60;88.20;;;;;;6279573;22;20138;-78
2023/01/19 00:13:38;;;;;;;9.77;2.67;;;10.50;88.20;;;;;;6306857;22;20029;-74
2023/01/19 00:16:05;;;;;;;7.68;2.85;;;10.50;88.50;;;;;;6307343;22;20152;-76
2023/01/19 00:18:31;;;;;;;9.32;2.65;;;10.50;88.90;;;;;;6307387;22;19999;-78
2023/01/19 00:20:56;;;;;;;9.15;2.72;;;10.50;88.00;;;;;;6306799;22;20007;-78
2023/01/19 00:23:22;;;;;;;7.97;2.55;;;10.50;88.10;;;;;;6307147;22;20045;-77
2023/01/19 00:25:50;;;;;;;8.95;2.55;;;10.50;88.10;;;;;;6307023;22;20421;-77
2023/01/19 00:28:17;;;;;;;9.55;2.80;;;10.50;88.10;;;;;;6306943;22;20087;-77
2023/01/19 00:30:43;;;;;;;8.55;2.70;;;10.60;88.20;;;;;;6306892;22;20000;-78
2023/01/19 00:33:09;;;;;;;8.93;2.63;;;10.60;88.10;;;;;;6307124;22;20067;-76
2023/01/19 00:35:35;;;;;;;11.80;2.58;;;10.60;88.30;;;;;;6306879;22;20010;-78
2023/01/19 00:38:02;;;;;;;8.98;3.22;;;10.60;88.30;;;;;;6306900;22;20019;-76
2023/01/19 00:40:27;;;;;;;10.50;3.72;;;10.50;88.40;;;;;;6306681;22;20007;-77
2023/01/19 00:42:53;;;;;;;8.57;3.58;;;10.50;88.50;;;;;;6306325;22;20007;-76
2023/01/19 00:45:21;;;;;;;9.57;3.20;;;10.50;88.40;;;;;;6306468;22;19995;-77
2023/01/19 00:47:55;;;;;;;7.93;3.45;;;10.50;88.50;;;;;;6306428;22;20452;-77
2023/01/19 00:50:28;;;;;;;9.63;2.58;;;10.50;88.40;;;;;;6306265;22;20006;-76
2023/01/19 00:52:55;;;;;;;6.72;2.53;;;10.50;87.90;;;;;;6306411;22;20006;-76
2023/01/19 00:55:22;;;;;;;9.00;3.22;;;10.40;88.10;;;;;;6306380;22;20442;-77
2023/01/19 00:57:47;;;;;;;9.38;3.47;;;10.40;88.30;;;;;;6306210;22;20011;-76
2023/01/19 01:00:20;;;;;;;9.38;2.97;;;10.40;88.10;;;;;;6306454;22;20482;-77
2023/01/19 01:02:48;;;;;;;9.75;2.78;;;10.40;88.10;;;;;;6306647;22;20056;-77
2023/01/19 01:05:14;;;;;;;8.85;2.20;;;10.40;88.30;;;;;;6306512;22;19999;-76
2023/01/19 01:07:41;;;;;;;7.65;2.40;;;10.30;88.20;;;;;;6303973;22;20049;-77
2023/01/19 01:10:18;;;;;;;9.32;2.72;;;10.30;88.30;;;;;;6306622;22;19995;-76
2023/01/19 01:12:45;;;;;;;10.45;2.60;;;10.30;88.40;;;;;;6306610;22;20128;-76
2023/01/19 01:15:13;;;;;;;12.27;3.00;;;10.30;88.40;;;;;;6306533;22;19999;-77
2023/01/19 01:17:48;;;;;;;6.90;2.38;;;10.30;88.40;;;;;;6306421;22;20007;-76
2023/01/19 01:20:17;;;;;;;6.05;2.40;;;10.30;88.10;;;;;;6279253;22;20015;-76
2023/01/19 01:22:45;;;;;;;9.68;2.90;;;10.30;88.30;;;;;;6306289;22;20003;-76
2023/01/19 01:25:15;;;;;;;8.32;2.80;;;10.30;88.20;;;;;;6306579;22;19999;-77
2023/01/19 01:27:41;;;;;;;4.40;1.90;;;10.30;88.40;;;;;;6306449;22;20003;-76
2023/01/19 01:30:09;;;;;;;7.43;2.50;;;10.20;88.40;;;;;;6306468;22;20490;-78
2023/01/19 01:32:34;;;;;;;10.23;2.58;;;10.20;88.10;;;;;;6306095;22;20003;-76
2023/01/19 01:35:00;;;;;;;6.28;2.13;;;10.20;88.20;;;;;;6306565;22;20003;-76
2023/01/19 01:37:26;;;;;;;10.25;2.40;;;10.20;88.20;;;;;;6305870;22;20426;-76
2023/01/19 01:39:51;;;;;;;7.18;2.45;;;10.20;88.50;;;;;;6307335;22;20007;-77
2023/01/19 01:42:24;;;;;;;9.07;2.50;;;10.10;88.20;;;;;;6314617;22;20037;-77
2023/01/19 01:44:53;;;;;;;6.28;2.28;;;10.10;88.30;;;;;;6333053;22;20051;-77
2023/01/19 01:47:25;;;;;;;7.70;2.38;;;10.10;88.40;;;;;;6314537;22;20003;-78
2023/01/19 01:50:01;;;;;;;8.27;2.20;;;10.10;88.40;;;;;;6307489;22;20007;-77
2023/01/19 01:52:29;;;;;;;5.60;1.85;;;10.10;88.20;;;;;;6306604;22;19999;-75
2023/01/19 01:54:56;;;;;;;10.18;2.50;;;10.10;88.20;;;;;;6306147;22;19995;-76
2023/01/19 01:57:22;;;;;;;8.38;2.30;;;10.00;88.30;;;;;;6306497;22;20022;-76
2023/01/19 01:59:49;;;;;;;8.38;2.35;;;10.00;88.10;;;;;;6306318;22;20333;-76
2023/01/19 02:05:21;;;;;;;10.40;2.67;;;9.90;89.70;;;;;;6308327;22;20041;-76
2023/01/19 02:13:45;;;;;;;10.25;2.40;;;9.90;89.60;;;;;;6308273;22;20018;-75
2023/01/19 02:16:13;;;;;;;8.43;2.28;;;9.80;89.60;;;;;;6308087;22;20004;-77
2023/01/19 02:18:39;;;;;;;9.48;2.53;;;9.90;89.90;;;;;;6308171;22;20003;-77
2023/01/19 02:21:18;;;;;;;10.07;2.00;;;9.90;89.80;;;;;;6307887;22;19995;-76
2023/01/19 02:23:52;;;;;;;11.25;2.25;;;9.90;90.00;;;;;;6308202;22;20066;-76
2023/01/19 02:26:45;;;;;;;7.78;2.10;;;10.00;88.80;;;;;;6307849;22;20006;-76
2023/01/19 02:29:13;;;;;;;10.57;2.00;;;10.00;88.90;;;;;;6303202;22;20052;-76
2023/01/19 02:31:40;;;;;;;9.23;2.15;;;9.90;89.70;;;;;;6307897;22;20004;-76
2023/01/19 02:34:08;;;;;;;9.27;2.13;;;9.90;89.60;;;;;;6307885;22;19999;-75
2023/01/19 02:36:43;;;;;;;8.40;2.10;;;9.90;89.40;;;;;;6307938;22;20053;-77
2023/01/19 02:39:11;;;;;;;5.50;1.80;;;9.80;89.40;;;;;;6280482;22;20026;-75
2023/01/19 02:41:48;;;;;;;7.78;2.30;;;9.80;89.60;;;;;;6307347;22;20026;-78
2023/01/19 02:44:15;;;;;;;12.77;2.75;;;9.70;89.70;;;;;;6307844;22;19995;-76
2023/01/19 02:46:40;;;;;;;6.68;1.85;;;9.70;89.60;;;;;;6307823;22;20071;-76
2023/01/19 02:49:06;;;;;;;20.52;2.50;;;9.60;89.50;;;;;;6307987;22;20007;-76
2023/01/19 02:51:33;;;;;;;7.38;1.70;;;9.60;89.60;;;;;;6307712;22;20003;-77
2023/01/19 02:54:19;;;;;;;9.60;1.70;;;9.50;89.70;;;;;;6307801;22;20049;-76
2023/01/19 02:56:45;;;;;;;9.07;1.85;;;9.50;89.50;;;;;;6282946;22;20064;-76
2023/01/19 02:59:31;;;;;;;8.43;2.03;;;9.50;89.80;;;;;;6307534;22;20014;-76
2023/01/19 03:02:11;;;;;;;7.30;1.98;;;9.50;89.40;;;;;;6307542;22;20003;-76
2023/01/19 03:04:49;;;;;;;8.55;1.92;;;9.40;89.40;;;;;;6307539;22;20071;-76
2023/01/19 03:07:52;;;;;;;11.43;2.85;;;9.40;89.60;;;;;;6307686;22;20046;-77
2023/01/19 03:10:21;;;;;;;9.15;1.70;;;9.30;89.20;;;;;;6244400;22;20003;-77
2023/01/19 03:13:01;;;;;;;9.68;1.77;;;9.30;89.20;;;;;;6307231;22;20019;-75
2023/01/19 03:15:56;;;;;;;9.27;2.33;;;9.30;89.40;;;;;;6307604;22;20001;-76
2023/01/19 03:18:26;;;;;;;6.38;1.60;;;9.20;89.10;;;;;;6307546;22;20011;-77
2023/01/19 03:20:56;;;;;;;6.63;1.77;;;9.20;89.10;;;;;;6307341;22;20063;-77
2023/01/19 03:23:28;;;;;;;11.65;2.03;;;9.20;89.00;;;;;;6307193;22;20048;-76
2023/01/19 03:25:56;;;;;;;9.05;2.20;;;9.20;89.00;;;;;;6307266;22;20053;-76
2023/01/19 03:28:25;;;;;;;9.73;1.90;;;9.20;88.90;;;;;;6307722;22;20030;-77
2023/01/19 03:31:02;;;;;;;12.25;2.20;;;9.20;88.90;;;;;;6307522;22;20074;-76
2023/01/19 03:33:32;;;;;;;9.23;1.90;;;9.20;88.80;;;;;;6307282;22;20082;-76
2023/01/19 03:36:04;;;;;;;12.30;2.10;;;9.10;88.50;;;;;;6307029;22;20024;-76
2023/01/19 03:38:36;;;;;;;9.27;2.00;;;9.20;88.80;;;;;;6306897;22;20015;-76
2023/01/19 03:41:07;;;;;;;7.82;1.95;;;9.20;88.50;;;;;;6307280;22;20019;-77
2023/01/19 03:43:35;;;;;;;10.55;2.45;;;9.20;88.50;;;;;;6307150;22;20003;-76
2023/01/19 03:46:03;;;;;;;16.50;3.05;;;9.20;88.40;;;;;;6306582;22;20078;-75
2023/01/19 03:48:30;;;;;;;9.95;2.03;;;9.20;88.40;;;;;;6307092;22;20009;-77
2023/01/19 03:50:56;;;;;;;10.90;2.38;;;9.20;88.20;;;;;;6307231;22;20026;-76
2023/01/19 03:53:22;;;;;;;9.27;2.20;;;9.20;88.10;;;;;;6307142;22;20000;-78
2023/01/19 03:55:50;;;;;;;16.08;2.33;;;9.20;87.70;;;;;;6306889;22;20002;-76
2023/01/19 03:58:16;;;;;;;12.02;2.00;;;9.20;87.60;;;;;;6307162;22;20003;-77
2023/01/19 04:00:42;;;;;;;15.25;2.50;;;9.20;87.40;;;;;;6307184;22;20515;-77
2023/01/19 04:03:14;;;;;;;8.98;2.10;;;9.10;87.20;;;;;;6307036;22;20061;-76
2023/01/19 04:05:40;;;;;;;9.50;1.88;;;9.20;87.50;;;;;;6307326;22;20075;-77
2023/01/19 04:08:05;;;;;;;13.05;2.55;;;9.20;87.30;;;;;;6307245;22;20100;-76
2023/01/19 04:10:31;;;;;;;13.80;2.28;;;9.20;87.10;;;;;;6307178;22;19995;-77
2023/01/19 04:12:58;;;;;;;10.80;2.35;;;9.30;87.10;;;;;;6307141;22;20010;-76
2023/01/19 04:15:24;;;;;;;9.98;2.10;;;9.40;86.80;;;;;;6307184;22;20003;-78
2023/01/19 04:17:50;;;;;;;10.25;2.25;;;9.40;86.40;;;;;;6306681;22;20022;-76
2023/01/19 04:20:16;;;;;;;11.52;2.03;;;9.40;86.20;;;;;;6306847;22;20003;-76
2023/01/19 04:22:41;;;;;;;9.90;2.35;;;9.40;86.10;;;;;;6306855;22;20019;-77
2023/01/19 04:25:08;;;;;;;10.13;2.40;;;9.50;86.20;;;;;;6306627;22;20041;-77
2023/01/19 04:27:35;;;;;;;12.65;2.03;;;9.50;86.30;;;;;;6306919;22;19996;-76
2023/01/19 04:30:02;;;;;;;10.77;2.22;;;9.50;86.00;;;;;;6306558;22;20003;-78
2023/01/19 04:32:28;;;;;;;12.35;2.83;;;9.50;85.90;;;;;;6306873;22;20424;-77
2023/01/19 04:34:54;;;;;;;15.00;2.33;;;9.40;85.70;;;;;;6306443;22;20031;-77
2023/01/19 04:37:20;;;;;;;9.65;2.40;;;9.40;85.90;;;;;;6304214;22;20011;-77
2023/01/19 04:39:46;;;;;;;13.35;2.10;;;9.40;85.60;;;;;;6307030;22;20412;-77
2023/01/19 04:42:11;;;;;;;26.45;2.78;;;9.40;85.70;;;;;;6306605;22;20014;-77
2023/01/19 04:44:37;;;;;;;10.77;2.35;;;9.30;85.50;;;;;;6306604;22;20004;-78
2023/01/19 04:47:03;;;;;;;11.45;2.08;;;9.30;85.90;;;;;;6306598;22;20007;-78
2023/01/19 04:49:29;;;;;;;9.98;2.08;;;9.20;85.70;;;;;;6279227;22;20425;-77
2023/01/19 04:51:55;;;;;;;12.38;2.20;;;9.20;85.80;;;;;;6306724;22;20044;-77
2023/01/19 04:54:20;;;;;;;11.63;2.10;;;9.20;86.00;;;;;;6306693;22;20045;-77
2023/01/19 04:56:46;;;;;;;10.23;2.38;;;9.10;85.80;;;;;;6306180;22;20337;-77
2023/01/19 04:59:13;;;;;;;14.18;2.20;;;9.10;85.80;;;;;;6306603;22;19995;-76
2023/01/19 05:01:38;;;;;;;17.40;2.85;;;9.10;85.80;;;;;;6306719;22;20441;-77
2023/01/19 05:04:05;;;;;;;19.63;2.63;;;9.00;85.90;;;;;;6279718;22;20010;-79
2023/01/19 05:06:32;;;;;;;17.50;2.33;;;9.00;85.90;;;;;;6306624;22;20003;-76
2023/01/19 05:08:58;;;;;;;9.82;2.08;;;9.00;86.20;;;;;;6307000;22;20415;-76
2023/01/19 05:11:24;;;;;;;10.13;2.22;;;9.00;86.00;;;;;;6306934;22;20003;-78
2023/01/19 05:13:50;;;;;;;10.80;2.60;;;9.00;85.90;;;;;;6306786;22;20030;-76
2023/01/19 05:16:16;;;;;;;10.27;2.83;;;8.90;86.00;;;;;;6306974;22;20008;-78
2023/01/19 05:18:41;;;;;;;11.57;2.90;;;8.90;86.10;;;;;;6307181;22;20004;-78
2023/01/19 05:21:07;;;;;;;12.93;2.83;;;8.90;86.00;;;;;;6307455;22;19995;-77
2023/01/19 05:23:33;;;;;;;14.85;4.00;;;8.90;86.10;;;;;;6307492;22;20000;-78
2023/01/19 05:26:00;;;;;;;13.82;3.40;;;8.90;86.20;;;;;;6329867;22;20003;-76
2023/01/19 05:28:30;;;;;;;14.02;3.08;;;8.80;86.40;;;;;;6308210;22;20030;-76
2023/01/19 05:30:56;;;;;;;12.18;3.47;;;8.90;86.60;;;;;;6318677;22;20006;-76
2023/01/19 05:33:22;;;;;;;14.80;2.92;;;8.80;86.30;;;;;;6306909;22;20004;-77
2023/01/19 05:35:52;;;;;;;12.50;2.78;;;8.80;86.60;;;;;;6307135;22;20003;-77
2023/01/19 05:38:19;;;;;;;8.73;2.13;;;8.80;86.70;;;;;;6308507;22;20451;-77
2023/01/19 05:40:45;;;;;;;10.70;2.47;;;8.80;86.90;;;;;;6308586;22;19999;-77
2023/01/19 05:43:12;;;;;;;10.00;2.70;;;8.80;86.90;;;;;;6308822;22;20007;-76
2023/01/19 05:45:38;;;;;;;13.13;2.85;;;8.70;86.80;;;;;;6308899;22;20066;-77
2023/01/19 05:48:05;;;;;;;14.45;4.20;;;8.70;86.70;;;;;;6309057;22;20022;-75
2023/01/19 05:50:31;;;;;;;19.70;4.05;;;8.70;86.50;;;;;;6308950;22;20003;-77
2023/01/19 05:52:58;;;;;;;13.13;2.20;;;8.80;86.70;;;;;;6280953;22;20112;-76
2023/01/19 05:55:24;;;;;;;11.15;2.65;;;8.80;86.60;;;;;;6308395;22;20062;-77
2023/01/19 05:57:50;;;;;;;13.43;2.55;;;8.80;86.70;;;;;;6308675;22;20007;-77
2023/01/19 06:00:17;;;;;;;12.98;2.58;;;8.80;86.50;;;;;;6281967;22;20090;-78
2023/01/19 06:02:42;;;;;;;11.90;3.10;;;8.80;86.70;;;;;;6309106;22;20338;-77
2023/01/19 06:05:10;;;;;;;10.40;2.60;;;8.80;86.50;;;;;;6308751;22;20037;-76
2023/01/19 06:07:35;;;;;;;10.65;2.65;;;8.80;86.80;;;;;;6308409;22;19999;-77
2023/01/19 06:10:01;;;;;;;12.40;2.80;;;8.70;86.70;;;;;;6308619;22;20007;-76
2023/01/19 06:12:27;;;;;;;11.70;2.60;;;8.80;86.60;;;;;;6280744;22;20050;-77
2023/01/19 06:14:52;;;;;;;13.48;2.70;;;8.70;86.40;;;;;;6308665;22;20321;-78
2023/01/19 06:17:19;;;;;;;15.07;3.25;;;8.70;86.20;;;;;;6308261;22;20011;-76
2023/01/19 06:19:44;;;;;;;16.83;3.10;;;8.70;86.40;;;;;;6308613;22;20078;-76
2023/01/19 06:22:10;;;;;;;15.88;3.33;;;8.70;86.10;;;;;;6281171;22;20042;-77
2023/01/19 06:24:36;;;;;;;10.82;3.22;;;8.70;86.30;;;;;;6308578;22;20095;-78
2023/01/19 06:27:01;;;;;;;13.57;3.60;;;8.70;86.40;;;;;;6308803;22;20045;-77
2023/01/19 06:29:27;;;;;;;16.77;4.25;;;8.70;86.80;;;;;;6308463;22;20324;-78
2023/01/19 06:31:53;;;;;;;14.32;3.10;;;8.70;86.40;;;;;;6308130;22;20046;-77
2023/01/19 06:34:19;;;;;;;13.48;2.90;;;8.70;86.70;;;;;;6308107;22;19999;-75
2023/01/19 06:36:45;;;;;;;9.68;3.13;;;8.70;86.80;;;;;;6308167;22;20023;-77
2023/01/19 06:39:11;;;;;;;13.15;2.60;;;8.70;86.80;;;;;;6280692;22;20015;-78
2023/01/19 06:41:37;;;;;;;14.20;3.17;;;8.70;86.60;;;;;;6308288;22;20003;-78
2023/01/19 06:44:04;;;;;;;13.38;2.63;;;8.80;86.50;;;;;;6308135;22;20070;-76
2023/01/19 06:46:30;;;;;;;14.13;2.95;;;8.80;86.40;;;;;;6308076;22;20005;-78
2023/01/19 06:48:56;;;;;;;14.00;2.90;;;8.90;86.50;;;;;;6308342;22;20189;-77
2023/01/19 06:51:22;;;;;;;10.85;2.78;;;8.90;85.90;;;;;;6280217;22;20449;-78
2023/01/19 06:53:48;;;;;;;9.32;3.00;;;8.90;86.00;;;;;;6307780;22;20033;-78
2023/01/19 06:56:14;;;;;;;13.50;3.22;;;8.90;86.20;;;;;;6305828;22;20007;-76
2023/01/19 06:58:41;;;;;;;16.45;2.67;;;8.90;85.90;;;;;;6307610;22;20003;-78
2023/01/19 07:01:08;;;;;;;10.43;2.63;;;8.90;86.00;;;;;;6307730;22;20080;-78
2023/01/19 07:03:35;;;;;;;12.55;3.35;;;9.00;85.70;;;;;;6307651;22;20363;-77
2023/01/19 07:06:01;;;;;;;15.07;3.20;;;9.00;85.90;;;;;;6308079;22;20007;-77
2023/01/19 07:08:30;;;;;;;11.63;2.95;;;9.10;85.70;;;;;;6307480;22;20033;-78
2023/01/19 07:11:06;;;;;;;9.43;2.75;;;9.10;85.60;;;;;;6307550;22;20425;-78
2023/01/19 07:13:33;;;;;;;14.00;3.83;;;9.20;85.40;;;;;;6307239;22;20009;-77
2023/01/19 07:16:04;;;;;;;9.20;3.10;;;9.20;85.20;;;;;;6307120;22;19995;-77
2023/01/19 07:18:29;;;;;;;10.80;3.47;;;9.30;85.40;;;;;;6306952;22;20015;-78
2023/01/19 07:20:56;;;;;;;11.13;3.88;;;9.30;85.10;;;;;;6307563;22;20065;-78
2023/01/19 07:23:22;;;;;;;13.00;3.90;;;9.40;85.80;;;;;;6307718;22;20367;-79
2023/01/19 07:25:48;;;;;;;13.30;4.32;;;9.50;85.20;;;;;;6307392;22;20025;-78
2023/01/19 07:28:15;;;;;;;15.45;4.53;;;9.50;85.10;;;;;;6307172;22;19995;-78
2023/01/19 07:30:45;;;;;;;17.80;5.70;;;9.70;85.40;;;;;;6307533;22;20003;-76
2023/01/19 07:33:11;;;;;;;15.23;5.82;;;9.80;85.20;;;;;;6307554;22;20413;-78
2023/01/19 07:35:37;;;;;;;15.18;5.93;;;9.90;85.10;;;;;;6307611;22;20391;-77
2023/01/19 07:38:03;;;;;;;20.58;7.53;;;10.00;84.10;;;;;;6307106;22;20460;-77
2023/01/19 07:40:29;;;;;;;21.85;8.48;;;10.10;83.90;;;;;;6307478;22;20086;-76
2023/01/19 07:42:55;;;;;;;16.30;6.25;;;10.10;83.90;;;;;;6307259;22;20452;-78
2023/01/19 07:45:21;;;;;;;19.27;6.80;;;10.10;83.60;;;;;;6307233;22;20014;-76
2023/01/19 07:47:47;;;;;;;15.35;5.82;;;10.00;83.40;;;;;;6307183;22;20116;-76
2023/01/19 07:50:16;;;;;;;18.45;6.43;;;10.00;83.90;;;;;;6307116;22;20003;-78
2023/01/19 07:52:42;;;;;;;15.30;5.63;;;10.00;84.10;;;;;;6306829;22;20002;-78
2023/01/19 07:55:08;;;;;;;15.65;5.82;;;9.90;84.90;;;;;;6307149;22;19999;-78
2023/01/19 07:57:34;;;;;;;10.45;5.13;;;9.80;85.00;;;;;;6306903;22;20050;-78
2023/01/19 08:00:02;;;;;;;14.55;5.57;;;9.90;85.70;;;;;;6279064;22;20392;-79
2023/01/19 08:02:29;;;;;;;14.93;5.68;;;9.90;85.30;;;;;;6306788;22;20168;-77
2023/01/19 08:04:54;;;;;;;13.90;4.50;;;10.00;84.20;;;;;;6306974;22;20007;-77
2023/01/19 08:07:20;;;;;;;13.30;5.32;;;10.00;83.90;;;;;;6306860;22;20074;-78
2023/01/19 08:09:46;;;;;;;12.38;4.70;;;10.10;83.20;;;;;;6306861;22;20002;-78
2023/01/19 08:12:11;;;;;;;12.32;4.70;;;10.20;83.40;;;;;;6306833;22;20000;-79
2023/01/19 08:14:37;;;;;;;15.52;4.63;;;10.30;83.00;;;;;;6307146;22;20003;-79
2023/01/19 08:17:03;;;;;;;13.38;5.07;;;10.40;82.70;;;;;;6307128;22;20007;-78
2023/01/19 08:19:28;;;;;;;21.83;4.18;;;10.50;82.80;;;;;;6306829;22;20025;-77
2023/01/19 08:21:55;;;;;;;17.15;5.45;;;10.60;82.30;;;;;;6279275;22;20056;-78
2023/01/19 08:24:24;;;;;;;13.48;5.13;;;10.60;82.30;;;;;;6307273;22;20019;-78
2023/01/19 08:26:56;;;;;;;16.42;5.30;;;10.70;82.10;;;;;;6307269;22;20313;-76
2023/01/19 08:29:22;;;;;;;18.05;4.72;;;10.70;82.30;;;;;;6306875;22;20293;-78
2023/01/19 08:31:48;;;;;;;17.38;4.20;;;10.70;82.00;;;;;;6306665;22;19999;-78
2023/01/19 08:34:13;;;;;;;16.60;4.50;;;10.70;81.80;;;;;;6306793;22;20370;-78
2023/01/19 08:36:39;;;;;;;17.80;4.95;;;10.60;81.70;;;;;;6306825;22;20065;-76
2023/01/19 08:39:05;;;;;;;14.85;5.13;;;10.60;81.90;;;;;;6306955;22;20019;-78
2023/01/19 08:41:31;;;;;;;21.08;6.20;;;10.60;82.10;;;;;;6307009;22;19999;-78
2023/01/19 08:43:57;;;;;;;12.10;4.93;;;10.60;81.90;;;;;;6307029;22;20030;-78
2023/01/19 08:46:22;;;;;;;14.57;5.25;;;10.60;81.90;;;;;;6307474;22;20401;-78
2023/01/19 08:48:49;;;;;;;13.82;5.22;;;10.60;81.80;;;;;;6311698;22;20361;-79
2023/01/19 08:51:16;;;;;;;15.88;5.32;;;10.70;82.00;;;;;;6328109;22;20470;-78
2023/01/19 08:53:42;;;;;;;13.32;5.13;;;10.70;81.90;;;;;;6316652;22;20066;-78
2023/01/19 08:56:12;;;;;;;15.32;4.97;;;10.80;81.80;;;;;;6309307;22;20003;-77
2023/01/19 08:58:39;;;;;;;11.82;3.85;;;11.00;81.70;;;;;;6307369;22;20022;-77
2023/01/19 09:01:07;;;;;;;13.07;4.30;;;11.20;81.00;;;;;;6307266;22;20390;-79
2023/01/19 09:03:33;;;;;;;13.07;3.78;;;11.30;80.30;;;;;;6306570;22;20486;-78
2023/01/19 09:05:59;;;;;;;15.68;3.30;;;11.50;79.60;;;;;;6306115;22;20006;-76
2023/01/19 09:08:25;;;;;;;20.17;5.53;;;11.60;79.00;;;;;;6306732;22;20042;-78
2023/01/19 09:10:51;;;;;;;15.00;4.20;;;11.80;78.20;;;;;;6306295;22;20082;-78
2023/01/19 09:13:18;;;;;;;12.13;2.95;;;11.90;77.00;;;;;;6309274;22;20428;-76
2023/01/19 09:15:44;;;;;;;65.00;6.70;;;12.00;76.80;;;;;;6282092;22;20005;-78
2023/01/19 09:18:12;;;;;;;13.30;3.13;;;12.10;76.30;;;;;;6309328;22;20007;-77
2023/01/19 09:20:41;;;;;;;11.45;2.95;;;12.20;76.00;;;;;;6309723;22;19999;-78
2023/01/19 09:23:10;;;;;;;10.05;2.97;;;12.30;75.90;;;;;;6309607;22;20011;-78
2023/01/19 09:25:37;;;;;;;20.30;3.65;;;12.30;76.60;;;;;;6309947;22;20007;-80
2023/01/19 09:28:04;;;;;;;10.07;2.28;;;12.40;75.40;;;;;;6308294;22;20003;-79
2023/01/19 09:30:31;;;;;;;15.20;3.05;;;12.40;75.20;;;;;;6309668;22;20078;-77
2023/01/19 09:33:03;;;;;;;12.02;2.60;;;12.40;75.10;;;;;;6310148;22;20076;-77
2023/01/19 09:35:30;;;;;;;29.65;12.75;;;12.40;74.80;;;;;;6309045;22;20408;-77
2023/01/19 09:37:56;;;;;;;18.58;4.28;;;12.40;74.50;;;;;;6308544;22;20015;-78
2023/01/19 09:40:21;;;;;;;15.27;4.45;;;12.40;74.70;;;;;;6309035;22;20026;-77
2023/01/19 09:43:12;;;;;;;14.38;4.95;;;12.40;74.40;;;;;;6309240;22;20030;-77
2023/01/19 09:45:53;;;;;;;13.75;3.67;;;12.40;74.60;;;;;;6309267;22;19999;-77
2023/01/19 09:48:42;;;;;;;14.82;4.00;;;12.50;74.50;;;;;;6310475;22;19996;-76
2023/01/19 09:51:13;;;;;;;12.73;3.08;;;12.50;73.90;;;;;;6308979;22;20093;-75
2023/01/19 09:54:07;;;;;;;15.13;3.30;;;12.60;73.50;;;;;;6309210;22;20331;-78
2023/01/19 09:56:33;;;;;;;8.38;2.65;;;12.60;73.00;;;;;;6309051;22;20011;-76
2023/01/19 09:59:00;;;;;;;13.52;2.42;;;12.60;72.00;;;;;;6309401;22;20015;-75
2023/01/19 10:01:52;;;;;;;8.75;2.10;;;12.60;71.00;;;;;;6309054;22;19999;-77
2023/01/19 10:04:28;;;;;;;10.88;2.17;;;12.60;69.40;;;;;;6287579;22;20039;-75
2023/01/19 10:07:23;;;;;;;13.77;2.83;;;12.60;68.10;;;;;;6309080;22;20425;-76
2023/01/19 10:10:17;;;;;;;8.90;2.42;;;12.70;67.20;;;;;;6308530;22;20014;-78
2023/01/19 10:12:54;;;;;;;10.27;2.50;;;12.70;66.90;;;;;;6309476;22;20320;-78
2023/01/19 10:15:44;;;;;;;11.40;2.47;;;12.70;66.20;;;;;;6309312;22;20213;-80
2023/01/19 10:18:12;;;;;;;15.68;2.67;;;12.80;66.30;;;;;;6309807;22;20060;-78
2023/01/19 10:20:46;;;;;;;14.65;2.65;;;12.80;65.00;;;;;;6309424;22;19991;-78
2023/01/19 10:23:37;;;;;;;14.80;2.30;;;12.80;64.30;;;;;;6307473;22;20093;-78
2023/01/19 10:26:12;;;;;;;14.95;3.30;;;12.70;62.70;;;;;;6279645;22;20084;-78
2023/01/19 10:28:38;;;;;;;16.00;3.70;;;12.60;62.30;;;;;;6307934;22;20336;-76
2023/01/19 10:31:06;;;;;;;12.50;2.58;;;12.60;60.30;;;;;;6307799;22;20066;-79
2023/01/19 10:33:34;;;;;;;9.77;2.45;;;12.70;61.10;;;;;;6307797;22;20056;-79
2023/01/19 10:36:15;;;;;;;11.20;2.67;;;12.80;60.40;;;;;;6306974;22;20010;-77
2023/01/19 10:38:41;;;;;;;10.48;2.03;;;12.90;60.40;;;;;;6306691;22;20041;-76
2023/01/19 10:41:13;;;;;;;11.63;2.10;;;13.00;59.20;;;;;;6307312;22;19999;-76
2023/01/19 10:43:43;;;;;;;9.10;2.00;;;13.00;58.10;;;;;;6307682;22;20374;-70
2023/01/19 10:46:17;;;;;;;9.88;2.20;;;13.10;58.10;;;;;;6306421;22;20093;-72
2023/01/19 10:48:46;;;;;;;10.98;2.10;;;13.20;57.80;;;;;;6305926;22;20208;-72
2023/01/19 10:51:12;;;;;;;16.17;3.60;;;13.20;56.20;;;;;;6306751;22;20410;-71
2023/01/19 10:53:41;;;;;;;21.88;3.15;;;13.20;55.70;;;;;;6307276;22;20003;-74
2023/01/19 10:56:21;;;;;;;14.23;2.33;;;13.20;56.20;;;;;;6306610;22;20049;-71
2023/01/19 10:58:47;;;;;;;17.77;2.60;;;13.10;53.30;;;;;;6306885;22;20013;-69
2023/01/19 11:01:15;;;;;;;9.15;1.75;;;13.00;54.20;;;;;;6306667;22;19999;-69
2023/01/19 11:03:41;;;;;;;7.82;2.08;;;13.00;54.70;;;;;;6278720;22;20008;-70
2023/01/19 11:06:14;;;;;;;14.05;3.05;;;13.00;54.10;;;;;;6307303;22;19999;-70
2023/01/19 11:08:42;;;;;;;17.75;2.38;;;13.00;54.20;;;;;;6306583;22;20000;-71
2023/01/19 11:11:08;;;;;;;11.02;2.58;;;13.00;54.30;;;;;;6306619;22;20092;-70
2023/01/19 11:13:35;;;;;;;10.32;2.38;;;13.00;54.70;;;;;;6307251;22;20074;-72
2023/01/19 11:16:15;;;;;;;13.60;2.25;;;13.10;54.70;;;;;;6307215;22;20049;-73
2023/01/19 11:18:43;;;;;;;11.73;2.55;;;13.10;53.80;;;;;;6306392;22;20417;-72
2023/01/19 11:21:23;;;;;;;12.55;2.67;;;13.10;54.00;;;;;;6306885;22;20455;-71
2023/01/19 11:23:54;;;;;;;18.27;3.25;;;13.00;54.80;;;;;;6306837;22;20426;-71
2023/01/19 11:26:25;;;;;;;15.88;2.47;;;13.00;54.60;;;;;;6306589;22;20157;-70
2023/01/19 11:28:54;;;;;;;14.88;3.45;;;13.10;54.80;;;;;;6307105;22;20007;-72
2023/01/19 11:31:31;;;;;;;13.15;2.70;;;13.10;54.10;;;;;;6305412;22;20007;-70
2023/01/19 11:34:20;;;;;;;24.30;3.33;;;13.20;54.20;;;;;;6306354;22;19995;-72
2023/01/19 11:36:59;;;;;;;9.75;2.33;;;13.30;54.20;;;;;;6306830;22;20007;-74
2023/01/19 11:39:28;;;;;;;10.52;2.50;;;13.40;53.30;;;;;;6305882;22;20041;-75
2023/01/19 11:42:00;;;;;;;15.93;3.13;;;13.40;52.90;;;;;;6305147;22;20305;-75
2023/01/19 11:44:38;;;;;;;10.38;2.63;;;13.50;53.20;;;;;;6304934;22;20268;-75
2023/01/19 11:47:22;;;;;;;17.67;2.75;;;13.60;52.90;;;;;;6305117;22;20010;-77
2023/01/19 11:49:56;;;;;;;13.82;2.42;;;13.70;52.00;;;;;;6309170;22;20003;-76
2023/01/19 11:52:31;;;;;;;17.20;3.15;;;13.80;51.70;;;;;;6306907;22;19999;-76
2023/01/19 11:55:16;;;;;;;12.13;2.78;;;13.70;51.20;;;;;;6306289;22;19999;-77
2023/01/19 11:57:47;;;;;;;11.40;2.80;;;13.70;52.00;;;;;;6305778;22;20086;-75
2023/01/19 12:00:39;;;;;;;25.88;5.55;;;13.60;51.80;;;;;;6305749;22;20023;-76
2023/01/19 12:03:21;;;;;;;16.02;4.28;;;13.50;52.80;;;;;;6306841;22;19999;-73
2023/01/19 12:05:51;;;;;;;13.77;2.88;;;13.40;53.50;;;;;;6306271;22;20076;-74
2023/01/19 12:08:40;;;;;;;15.38;3.40;;;13.10;53.20;;;;;;6305912;22;19995;-73
2023/01/19 12:11:09;;;;;;;14.68;3.50;;;13.00;52.60;;;;;;6306131;22;19999;-73
2023/01/19 12:13:36;;;;;;;19.40;3.08;;;12.90;53.90;;;;;;6306187;22;20000;-75
2023/01/19 12:16:12;;;;;;;15.57;3.47;;;13.00;53.60;;;;;;6306322;22;20065;-75
2023/01/19 12:18:48;;;;;;;19.35;3.67;;;13.10;53.60;;;;;;6305342;22;20031;-73
2023/01/19 12:21:13;;;;;;;18.20;4.35;;;13.20;53.70;;;;;;6307020;22;20006;-75
2023/01/19 12:24:14;;;;;;;18.40;3.22;;;13.20;54.00;;;;;;6306916;22;20003;-75
2023/01/19 12:26:58;;;;;;;11.45;3.42;;;13.20;53.70;;;;;;6304915;22;20015;-76
2023/01/19 12:29:29;;;;;;;19.35;3.13;;;13.30;53.00;;;;;;6306912;22;20003;-74
2023/01/19 12:32:12;;;;;;;16.38;3.08;;;13.20;53.40;;;;;;6307389;22;20007;-75
2023/01/19 12:34:43;;;;;;;13.75;2.70;;;13.20;53.30;;;;;;6307357;22;20007;-76
2023/01/19 12:37:34;;;;;;;12.95;2.55;;;13.20;53.00;;;;;;6279439;22;20400;-74
2023/01/19 12:40:16;;;;;;;12.85;3.08;;;13.10;53.00;;;;;;6306935;22;20039;-75
2023/01/19 12:42:49;;;;;;;16.17;3.05;;;13.20;52.90;;;;;;6307307;22;19995;-76
2023/01/19 12:45:23;;;;;;;18.25;2.50;;;13.30;52.70;;;;;;6307017;22;20121;-76
2023/01/19 12:47:51;;;;;;;14.27;2.85;;;13.20;52.40;;;;;;6306644;22;20015;-73
2023/01/19 12:50:19;;;;;;;12.93;3.45;;;13.10;52.40;;;;;;6307061;22;20034;-75
2023/01/19 12:52:50;;;;;;;22.25;3.72;;;13.00;52.20;;;;;;6306912;22;19999;-75
2023/01/19 12:55:16;;;;;;;22.35;3.40;;;13.00;52.60;;;;;;6306663;22;20067;-74
2023/01/19 12:58:09;;;;;;;15.27;3.10;;;12.80;52.60;;;;;;6306604;22;20042;-76
2023/01/19 13:00:39;;;;;;;13.30;3.17;;;12.80;53.00;;;;;;6306889;22;20074;-74
2023/01/19 13:03:17;;;;;;;14.93;2.92;;;12.70;52.70;;;;;;6306111;22;20445;-75
2023/01/19 13:05:43;;;;;;;14.65;3.70;;;12.70;53.20;;;;;;6306222;22;20436;-76